Time;durP1;ratioP1;P1;durP2;ratioP2;P2;SDS_P1;SDS_P2;PMS_P1;PMS_P2;Temp;Humidity;BMP_temperature;BMP_pressure;BME280_temperature;BME280_humidity;BME280_pressure;Samples;Min_cycle;Max_cycle;Signal;HPM_P1;HPM_P2
2021/06/03 00:01:59;;;;;;;7.80;4.63;;;9.80;99.90;;;10.01;100.00;95350.00;2265606;55;26596;-64
2021/06/03 00:04:45;;;;;;;15.43;4.47;;;9.90;99.90;;;9.98;100.00;95360.00;2395252;54;26289;-64
2021/06/03 00:07:31;;;;;;;6.60;4.67;;;10.00;99.90;;;10.24;100.00;95361.00;2461807;54;26604;-64
2021/06/03 00:10:22;;;;;;;8.87;4.47;;;9.80;99.90;;;9.90;100.00;95358.00;2266329;55;26545;-64
2021/06/03 00:13:09;;;;;;;7.73;4.70;;;9.70;99.90;;;9.80;100.00;95357.00;2242403;54;26813;-64
2021/06/03 00:15:58;;;;;;;11.27;5.20;;;9.50;99.90;;;9.64;100.00;95360.00;2241821;55;26770;-64
2021/06/03 00:18:46;;;;;;;12.27;5.27;;;9.40;99.90;;;9.49;100.00;95365.00;2222944;55;26837;-64
2021/06/03 00:21:34;;;;;;;9.40;5.23;;;9.20;99.90;;;9.38;100.00;95366.00;2224574;54;26868;-65
2021/06/03 00:27:17;;;;;;;8.57;4.50;;;9.20;99.90;;;9.43;100.00;95368.00;2381949;55;33794;-64
2021/06/03 00:30:04;;;;;;;7.03;4.80;;;9.30;99.90;;;9.40;100.00;95374.00;2194895;57;26891;-65
2021/06/03 00:32:51;;;;;;;9.47;5.37;;;9.40;99.90;;;9.48;100.00;95374.00;2241363;57;27139;-64
2021/06/03 00:35:37;;;;;;;9.10;4.93;;;9.40;99.90;;;9.48;100.00;95379.00;2148798;57;26156;-65
2021/06/03 00:38:24;;;;;;;9.03;5.00;;;9.40;99.90;;;9.49;100.00;95372.00;2196478;57;27346;-64
2021/06/03 00:41:11;;;;;;;9.77;5.20;;;9.40;99.90;;;9.47;100.00;95378.00;2161378;57;26739;-65
2021/06/03 00:44:00;;;;;;;16.07;4.80;;;9.30;99.90;;;9.42;100.00;95382.00;2170729;57;26890;-64
2021/06/03 00:46:46;;;;;;;6.70;4.67;;;9.50;99.90;;;9.66;100.00;95379.00;2141969;57;26890;-65
2021/06/03 00:49:32;;;;;;;8.97;5.03;;;9.30;99.90;;;9.52;100.00;95378.00;2155500;57;27256;-64
2021/06/03 00:52:19;;;;;;;12.33;4.60;;;9.30;99.90;;;9.40;100.00;95379.00;2146907;57;27502;-64
2021/06/03 00:55:09;;;;;;;8.23;5.20;;;9.20;99.90;;;9.27;100.00;95379.00;2197270;57;26777;-64
2021/06/03 00:57:55;;;;;;;6.87;4.80;;;9.10;99.90;;;9.25;100.00;95383.00;2145613;57;26691;-64
2021/06/03 01:00:42;;;;;;;10.50;5.27;;;9.00;99.90;;;9.13;100.00;95403.00;2181473;57;26593;-64
2021/06/03 01:03:30;;;;;;;6.47;4.73;;;8.90;99.90;;;9.09;100.00;95399.00;2238669;57;26310;-64
2021/06/03 01:09:20;;;;;;;6.93;4.70;;;9.00;99.90;;;9.20;100.00;95390.00;2369885;54;33870;-64
2021/06/03 01:12:15;;;;;;;9.20;4.70;;;8.90;99.90;;;9.05;100.00;95400.00;2464621;55;27200;-64
2021/06/03 01:18:05;;;;;;;6.20;4.83;;;8.90;99.90;;;9.05;100.00;95393.00;2310801;54;33804;-64
2021/06/03 01:23:58;;;;;;;6.97;4.83;;;8.70;99.90;;;9.12;100.00;95396.00;2194640;55;34219;-64
2021/06/03 01:26:46;;;;;;;11.83;5.07;;;8.70;99.90;;;8.84;100.00;95413.00;2195273;56;26710;-65
2021/06/03 01:29:45;;;;;;;6.13;4.53;;;8.70;99.90;;;8.82;100.00;95416.00;2217639;56;26728;-65
2021/06/03 01:32:37;;;;;;;9.73;4.80;;;8.60;99.90;;;8.76;100.00;95421.00;2439196;55;26697;-64
2021/06/03 01:35:27;;;;;;;7.60;4.80;;;8.60;99.90;;;8.76;100.00;95424.00;2215964;56;26670;-65
2021/06/03 01:38:18;;;;;;;6.53;4.83;;;8.50;99.90;;;8.66;100.00;95431.00;2216697;56;26693;-64
2021/06/03 01:41:08;;;;;;;9.07;5.27;;;8.50;99.90;;;8.68;100.00;95431.00;2212748;56;26701;-64
2021/06/03 01:43:55;;;;;;;7.93;5.03;;;8.60;99.90;;;8.70;100.00;95436.00;2217819;56;27118;-65
2021/06/03 01:46:41;;;;;;;10.30;4.63;;;8.50;99.90;;;8.69;100.00;95434.00;2217410;56;27174;-65
2021/06/03 01:49:28;;;;;;;10.13;5.10;;;8.50;99.90;;;8.67;100.00;95431.00;2214297;56;27429;-64
2021/06/03 01:52:15;;;;;;;7.87;5.00;;;8.50;99.90;;;8.69;100.00;95430.00;2230784;55;27044;-64
2021/06/03 01:55:03;;;;;;;6.83;4.33;;;8.60;99.90;;;8.67;100.00;95433.00;2208664;55;27758;-65
2021/06/03 01:57:50;;;;;;;10.73;4.60;;;8.50;99.90;;;8.65;100.00;95434.00;2288197;55;27475;-64
2021/06/03 02:00:38;;;;;;;10.90;4.70;;;8.50;99.90;;;8.60;100.00;95429.00;2261491;55;26590;-64
2021/06/03 02:03:25;;;;;;;6.37;4.63;;;8.40;99.90;;;8.57;100.00;95430.00;2259560;55;26850;-64
2021/06/03 02:06:12;;;;;;;9.73;4.70;;;8.40;99.90;;;8.52;100.00;95429.00;2243083;55;26752;-65
2021/06/03 02:08:59;;;;;;;10.33;4.60;;;8.40;99.90;;;8.47;100.00;95431.00;2288665;55;26623;-64
2021/06/03 02:14:42;;;;;;;8.30;4.97;;;8.30;99.90;;;8.41;100.00;95417.00;2200806;55;34743;-64
2021/06/03 02:17:34;;;;;;;7.33;4.97;;;8.10;99.90;;;8.25;100.00;95422.00;2169469;56;26950;-64
2021/06/03 02:23:24;;;;;;;7.03;5.00;;;8.00;99.90;;;8.28;100.00;95420.00;2249304;55;33126;-64
2021/06/03 02:26:11;;;;;;;6.40;4.80;;;8.00;99.90;;;8.18;100.00;95435.00;2174273;56;26703;-64
2021/06/03 02:28:58;;;;;;;11.90;5.00;;;7.90;99.90;;;8.07;100.00;95448.00;2183433;56;26692;-64
2021/06/03 02:31:46;;;;;;;8.07;4.70;;;7.90;99.90;;;8.08;100.00;95446.00;2358001;56;26716;-64
2021/06/03 02:34:33;;;;;;;8.53;4.97;;;8.00;99.90;;;8.19;100.00;95449.00;2234285;56;26750;-64
2021/06/03 02:37:20;;;;;;;8.47;4.40;;;7.90;99.90;;;8.03;100.00;95451.00;2183930;56;26701;-64
2021/06/03 02:40:12;;;;;;;10.73;5.00;;;7.80;99.90;;;7.99;100.00;95444.00;2209619;55;27392;-65
2021/06/03 02:42:59;;;;;;;8.53;5.07;;;7.80;99.90;;;7.99;100.00;95461.00;2184909;56;27114;-65
2021/06/03 02:45:46;;;;;;;8.30;4.70;;;7.90;99.90;;;7.98;100.00;95454.00;2399847;56;27371;-65
2021/06/03 02:48:33;;;;;;;7.40;5.40;;;7.90;99.90;;;7.98;100.00;95461.00;2183543;56;27225;-65
2021/06/03 02:51:19;;;;;;;8.07;4.87;;;7.90;99.90;;;8.00;100.00;95457.00;2187132;56;26859;-66
2021/06/03 02:54:06;;;;;;;9.27;5.40;;;7.80;99.90;;;7.98;100.00;95462.00;2355749;56;26660;-65
2021/06/03 02:56:52;;;;;;;10.37;4.87;;;7.90;99.90;;;7.96;100.00;95461.00;2292617;56;26408;-65
2021/06/03 02:59:39;;;;;;;7.17;5.03;;;8.00;99.90;;;8.26;100.00;95460.00;2297322;56;26659;-66
2021/06/03 03:02:25;;;;;;;6.23;5.10;;;8.00;99.90;;;8.16;100.00;95462.00;2159012;56;26812;-65
2021/06/03 03:05:13;;;;;;;11.00;4.90;;;7.90;99.90;;;8.04;100.00;95464.00;2159342;57;26733;-65
2021/06/03 03:07:59;;;;;;;7.83;4.97;;;7.80;99.90;;;7.92;100.00;95468.00;2159576;57;26869;-65
2021/06/03 03:10:50;;;;;;;7.50;4.63;;;7.80;99.90;;;7.99;100.00;95469.00;2252609;56;26694;-65
2021/06/03 03:13:36;;;;;;;8.20;4.53;;;7.80;99.90;;;7.92;100.00;95472.00;2155314;57;26953;-65
2021/06/03 03:16:23;;;;;;;10.40;5.10;;;7.90;99.90;;;8.14;100.00;95470.00;2155920;57;27415;-65
2021/06/03 03:19:09;;;;;;;6.70;5.07;;;7.80;99.90;;;7.96;100.00;95482.00;2234800;57;26634;-65
2021/06/03 03:21:56;;;;;;;9.03;5.10;;;7.80;99.90;;;8.06;100.00;95472.00;2156930;57;27382;-66
2021/06/03 03:24:42;;;;;;;8.10;4.90;;;7.80;99.90;;;7.93;100.00;95484.00;2240053;57;26634;-66
2021/06/03 03:27:28;;;;;;;9.53;4.67;;;7.70;99.90;;;7.85;100.00;95486.00;2179999;57;26732;-65
2021/06/03 03:30:18;;;;;;;7.00;5.00;;;7.80;99.90;;;7.97;100.00;95484.00;2268991;56;26254;-66
2021/06/03 03:33:05;;;;;;;7.47;4.93;;;7.70;99.90;;;7.84;100.00;95489.00;2333930;56;26702;-65
2021/06/03 03:35:52;;;;;;;8.67;4.83;;;7.70;99.90;;;7.82;100.00;95488.00;2183034;57;26930;-65
2021/06/03 03:38:39;;;;;;;10.47;4.93;;;7.70;99.90;;;7.94;100.00;95494.00;2209989;56;26623;-66
2021/06/03 03:41:25;;;;;;;7.77;4.87;;;7.80;99.90;;;8.00;100.00;95503.00;2276528;56;26750;-65
2021/06/03 03:44:12;;;;;;;9.17;4.80;;;7.80;99.90;;;8.03;100.00;95501.00;2398208;56;26915;-65
2021/06/03 03:46:58;;;;;;;10.67;5.70;;;7.80;99.90;;;8.08;100.00;95504.00;2334721;56;26761;-67
2021/06/03 03:49:45;;;;;;;13.30;5.80;;;7.80;99.90;;;8.21;100.00;95510.00;2400035;56;27185;-66
2021/06/03 03:52:31;;;;;;;6.97;5.70;;;7.90;99.90;;;8.33;100.00;95512.00;2183842;57;26746;-65
2021/06/03 03:58:16;;;;;;;7.87;5.87;;;8.20;99.90;;;8.79;100.00;95499.00;2205265;55;35161;-66
2021/06/03 04:01:03;;;;;;;8.50;5.90;;;8.30;99.90;;;8.81;100.00;95506.00;2137136;57;26587;-65
2021/06/03 04:06:45;;;;;;;6.77;5.23;;;8.70;99.90;;;9.40;100.00;95482.00;2202476;56;34504;-65
2021/06/03 04:09:31;;;;;;;5.77;4.63;;;8.90;99.90;;;9.34;100.00;95502.00;2374599;56;26598;-65
2021/06/03 04:12:18;;;;;;;7.93;4.77;;;8.80;99.90;;;9.35;100.00;95499.00;2188201;56;27283;-65
2021/06/03 04:15:07;;;;;;;4.83;4.20;;;8.90;99.90;;;9.43;100.00;95497.00;2237336;55;26855;-65
2021/06/03 04:17:53;;;;;;;9.20;4.60;;;9.00;99.90;;;9.51;100.00;95496.00;2405835;55;27193;-65
2021/06/03 04:20:39;;;;;;;5.73;4.73;;;9.00;99.90;;;9.54;100.00;95496.00;2405168;55;26224;-65
2021/06/03 04:26:22;;;;;;;8.97;5.90;;;9.20;99.90;;;9.91;100.00;95491.00;2271144;53;33589;-66
2021/06/03 04:29:08;;;;;;;9.23;5.73;;;9.30;99.90;;;9.78;100.00;95503.00;2363177;55;26116;-65
2021/06/03 04:31:55;;;;;;;6.77;5.13;;;9.40;99.90;;;9.97;100.00;95499.00;2247571;55;26757;-65
2021/06/03 04:34:41;;;;;;;8.60;5.33;;;9.50;99.90;;;10.13;100.00;95500.00;2242371;55;26813;-65
2021/06/03 04:37:28;;;;;;;13.00;5.27;;;9.80;99.90;;;10.32;100.00;95505.00;2438524;54;26941;-64
2021/06/03 04:43:13;;;;;;;7.30;4.70;;;10.10;99.90;;;10.89;100.00;95506.00;2392028;55;34193;-66
2021/06/03 04:45:59;;;;;;;6.87;4.50;;;10.30;99.90;;;11.06;100.00;95520.00;2236475;56;27454;-65
2021/06/03 04:51:43;;;;;;;7.17;4.13;;;10.70;99.90;;;11.64;100.00;95510.00;2253575;55;34063;-66
2021/06/03 04:54:30;;;;;;;9.07;4.80;;;10.80;99.90;;;11.62;100.00;95512.00;2165768;56;26808;-66
2021/06/03 04:57:16;;;;;;;7.60;4.50;;;11.00;99.90;;;12.21;100.00;95514.00;2367710;56;26664;-65
2021/06/03 05:00:07;;;;;;;7.97;4.67;;;11.30;99.90;;;13.28;100.00;95519.00;2164605;56;26694;-66
2021/06/03 05:02:54;;;;;;;7.60;4.50;;;11.50;99.90;;;13.67;100.00;95508.00;2158190;56;27272;-66
2021/06/03 05:05:41;;;;;;;8.23;4.20;;;12.40;99.90;;;16.46;100.00;95500.00;2195963;56;26098;-65
2021/06/03 05:08:28;;;;;;;7.83;4.00;;;14.00;99.90;;;18.49;100.00;95515.00;2373114;55;27208;-66
2021/06/03 05:11:14;;;;;;;6.75;4.10;;;15.00;99.90;;;20.66;100.00;95508.00;2428387;55;26611;-65
2021/06/03 05:16:59;;;;;;;4.75;3.90;;;16.70;99.90;;;22.21;97.68;95506.00;2245907;54;33803;-66
2021/06/03 05:19:45;;;;;;;6.75;3.72;;;17.70;99.90;;;23.80;82.71;95509.00;2361323;55;26845;-66
2021/06/03 05:22:31;;;;;;;5.43;3.37;;;18.50;99.90;;;23.70;78.23;95512.00;2322339;54;26948;-66
2021/06/03 05:25:20;;;;;;;5.47;3.55;;;19.30;99.90;;;25.06;70.18;95513.00;2462547;54;26727;-66
2021/06/03 05:28:07;;;;;;;4.22;3.67;;;19.50;99.90;;;24.40;71.94;95517.00;2236640;56;27186;-65
2021/06/03 05:33:51;;;;;;;4.40;3.40;;;18.90;99.90;;;23.18;81.22;95507.00;2491197;52;33742;-66
2021/06/03 05:36:37;;;;;;;4.95;3.42;;;19.20;99.90;;;23.78;77.21;95519.00;2416987;54;27383;-66
2021/06/03 05:39:24;;;;;;;4.65;3.65;;;19.40;99.90;;;23.34;76.37;95517.00;2496232;54;27077;-67
2021/06/03 05:42:11;;;;;;;3.95;3.60;;;19.60;99.90;;;23.32;79.88;95525.00;2333223;54;26649;-66
2021/06/03 05:44:58;;;;;;;5.10;3.60;;;20.00;99.90;;;25.39;67.98;95525.00;2265229;54;26584;-67
2021/06/03 05:47:45;;;;;;;5.87;3.75;;;19.20;99.90;;;24.31;70.36;95521.00;2496248;53;26767;-66
2021/06/03 05:50:32;;;;;;;4.20;3.40;;;19.50;99.90;;;25.14;65.99;95523.00;2261942;54;27051;-65
2021/06/03 05:53:18;;;;;;;8.23;3.60;;;19.90;99.90;;;24.48;68.52;95522.00;2442017;53;26595;-66
2021/06/03 05:56:05;;;;;;;10.43;3.65;;;18.90;99.90;;;24.29;74.26;95526.00;2416658;53;26591;-66
2021/06/03 06:01:50;;;;;;;6.43;2.97;;;20.90;99.90;;;27.82;56.65;95523.00;2368077;55;33180;-67
2021/06/03 06:07:41;;;;;;;3.28;2.97;;;21.30;99.90;;;27.02;55.07;95532.00;2205944;57;27445;-66
2021/06/03 06:10:28;;;;;;;5.18;2.92;;;21.40;99.90;;;26.77;54.76;95530.00;2214460;55;26680;-66
2021/06/03 06:13:14;;;;;;;6.68;3.10;;;20.10;99.90;;;25.51;64.34;95537.00;2207895;57;27197;-68
2021/06/03 06:16:01;;;;;;;3.92;2.47;;;22.20;99.90;;;28.40;52.91;95529.00;2432464;55;27399;-66
2021/06/03 06:18:47;;;;;;;3.40;2.75;;;23.50;99.90;;;28.04;52.35;95529.00;2432973;55;26909;-66
2021/06/03 06:21:35;;;;;;;2.40;2.20;;;23.50;99.90;;;27.17;55.08;95529.00;2227624;55;26919;-66
2021/06/03 06:24:21;;;;;;;3.00;2.70;;;23.50;99.90;;;25.97;59.77;95541.00;2234130;56;26592;-65
2021/06/03 06:27:09;;;;;;;3.00;2.50;;;24.00;99.90;;;28.87;50.80;95549.00;2271523;55;26889;-65
2021/06/03 06:29:56;;;;;;;3.10;2.53;;;25.50;99.90;;;30.08;46.27;95542.00;2254043;55;27093;-66
2021/06/03 06:32:42;;;;;;;2.62;2.42;;;25.80;99.90;;;28.99;46.17;95545.00;2223260;55;26967;-66
2021/06/03 06:35:29;;;;;;;3.08;2.12;;;26.50;99.90;;;30.00;43.70;95543.00;2241114;55;26797;-66
2021/06/03 06:38:17;;;;;;;3.67;2.47;;;25.20;99.90;;;28.65;45.01;95549.00;2254996;55;26643;-66
2021/06/03 06:41:04;;;;;;;4.30;2.60;;;24.90;99.90;;;28.06;45.97;95543.00;2209351;56;26822;-66
2021/06/03 06:46:46;;;;;;;3.10;2.40;;;24.80;99.90;;;28.48;48.15;95537.00;2382033;54;33774;-67
2021/06/03 06:49:32;;;;;;;2.72;2.30;;;26.40;99.90;;;30.35;41.77;95536.00;2181860;55;26680;-66
2021/06/03 06:55:14;;;;;;;3.05;2.62;;;26.20;99.90;;;29.96;43.23;95528.00;2221275;56;33863;-67
2021/06/03 06:58:02;;;;;;;3.75;2.40;;;26.50;99.90;;;28.46;43.63;95540.00;2310608;57;26736;-67
2021/06/03 07:00:49;;;;;;;2.85;2.30;;;24.80;99.90;;;28.46;45.91;95547.00;2317774;57;26815;-67
2021/06/03 07:03:35;;;;;;;3.45;2.30;;;25.40;99.90;;;30.45;43.00;95542.00;2335751;57;26662;-67
2021/06/03 07:06:21;;;;;;;2.78;2.42;;;27.00;99.90;;;31.33;39.91;95541.00;2155159;58;27102;-66
2021/06/03 07:09:08;;;;;;;2.22;2.03;;;27.30;99.90;;;30.02;41.76;95549.00;2319719;57;27502;-66
2021/06/03 07:11:54;;;;;;;3.25;2.45;;;27.20;99.90;;;31.20;41.57;95543.00;2157825;58;26960;-66
2021/06/03 07:14:41;;;;;;;2.40;2.17;;;26.50;99.90;;;30.59;41.84;95548.00;2159966;58;26833;-67
2021/06/03 07:17:27;;;;;;;3.33;2.35;;;25.60;99.90;;;29.55;42.64;95555.00;2159237;58;26778;-68
2021/06/03 07:23:10;;;;;;;2.80;2.00;;;24.60;99.90;;;30.27;41.44;95551.00;2485298;52;34013;-67
2021/06/03 07:25:57;;;;;;;6.75;2.37;;;25.50;99.90;;;30.38;43.04;95541.00;2272076;54;26761;-68
2021/06/03 07:28:45;;;;;;;5.62;2.10;;;27.00;99.90;;;31.33;39.72;95547.00;2327171;53;27105;-67
2021/06/03 07:31:32;;;;;;;3.78;2.40;;;27.70;99.90;;;31.67;39.54;95536.00;2289421;53;27188;-69
2021/06/03 07:37:17;;;;;;;2.70;2.40;;;26.80;99.90;;;31.54;39.04;95543.00;2402829;55;34678;-66
2021/06/03 07:40:08;;;;;;;5.10;2.50;;;26.00;99.90;;;30.80;42.75;95541.00;2420883;55;27169;-66
2021/06/03 07:42:55;;;;;;;2.87;2.25;;;26.60;99.90;;;31.66;40.92;95545.00;2206041;57;26653;-65
2021/06/03 07:45:43;;;;;;;2.95;2.30;;;26.10;99.90;;;31.53;44.11;95549.00;2202907;56;27465;-66
2021/06/03 07:48:29;;;;;;;2.90;2.10;;;26.10;99.90;;;31.12;43.26;95549.00;2182763;55;27447;-68
2021/06/03 07:51:16;;;;;;;2.80;2.08;;;25.50;99.90;;;30.11;44.01;95549.00;2224936;55;27682;-65
2021/06/03 07:54:03;;;;;;;2.60;2.22;;;25.20;99.90;;;30.34;47.30;95543.00;2224018;55;26801;-65
2021/06/03 07:56:49;;;;;;;3.90;2.30;;;25.40;99.90;;;30.69;45.98;95545.00;2234192;55;26599;-64
2021/06/03 07:59:35;;;;;;;3.25;2.37;;;26.40;99.90;;;31.36;43.18;95546.00;2260810;55;25145;-65
2021/06/03 08:02:22;;;;;;;3.47;2.37;;;25.90;99.90;;;30.08;42.97;95551.00;2271453;55;25589;-65
2021/06/03 08:05:11;;;;;;;3.83;2.28;;;26.80;99.90;;;30.88;41.28;95546.00;2245686;55;27218;-65
2021/06/03 08:07:58;;;;;;;3.17;2.12;;;27.10;99.90;;;31.62;43.63;95542.00;2178173;57;26613;-64
2021/06/03 08:10:45;;;;;;;2.83;2.17;;;26.70;99.90;;;31.19;42.50;95547.00;2189572;56;26199;-64
2021/06/03 08:13:32;;;;;;;3.47;2.45;;;26.60;99.90;;;31.37;40.50;95541.00;2300532;56;27223;-65
2021/06/03 08:16:19;;;;;;;4.15;2.25;;;26.80;99.90;;;31.38;43.56;95537.00;2181510;56;26950;-64
2021/06/03 08:19:06;;;;;;;4.07;2.47;;;26.40;99.90;;;30.49;47.31;95544.00;2397029;56;26710;-65
2021/06/03 08:21:53;;;;;;;2.83;2.30;;;27.70;99.90;;;31.65;38.37;95541.00;2192697;56;26683;-65
2021/06/03 08:24:40;;;;;;;3.28;2.58;;;29.60;99.50;;;31.64;37.91;95540.00;2208409;55;27107;-65
2021/06/03 08:27:26;;;;;;;5.20;2.70;;;28.20;99.90;;;32.08;38.22;95537.00;2246243;55;27340;-65
2021/06/03 08:30:17;;;;;;;3.45;2.53;;;27.90;99.90;;;30.70;42.57;95536.00;2274157;55;26651;-64
2021/06/03 08:33:06;;;;;;;2.50;2.30;;;26.40;99.90;;;30.14;47.02;95538.00;2204998;57;27027;-65
2021/06/03 08:35:52;;;;;;;3.90;2.60;;;26.30;99.90;;;30.31;40.81;95531.00;2305261;55;27781;-65
2021/06/03 08:38:39;;;;;;;2.60;2.22;;;26.30;99.90;;;29.61;41.90;95534.00;2427370;55;26670;-65
2021/06/03 08:41:26;;;;;;;2.90;2.60;;;27.10;99.90;;;31.53;43.24;95528.00;2427675;55;26166;-64
2021/06/03 08:47:12;;;;;;;2.72;2.10;;;27.40;99.90;;;30.94;41.81;95532.00;2270987;55;33814;-67
2021/06/03 08:49:59;;;;;;;3.15;2.60;;;27.10;99.90;;;30.13;40.58;95539.00;2163013;57;25297;-67
2021/06/03 08:52:46;;;;;;;3.15;2.42;;;27.90;99.90;;;31.38;38.88;95545.00;2373105;56;27078;-67
2021/06/03 08:58:40;;;;;;;2.55;2.35;;;29.70;98.90;;;33.11;36.42;95530.00;2321595;56;27579;-68
2021/06/03 09:01:28;;;;;;;3.22;2.45;;;28.00;99.90;;;31.09;43.42;95536.00;2163701;57;25593;-67
2021/06/03 09:04:15;;;;;;;4.62;2.45;;;26.80;99.90;;;30.35;44.98;95536.00;2162267;57;25128;-67
2021/06/03 09:07:01;;;;;;;4.15;2.60;;;26.80;99.90;;;30.63;44.73;95540.00;2222665;56;26654;-67
2021/06/03 09:13:09;;;;;;;3.53;2.55;;;26.80;99.90;;;31.08;44.01;95526.00;2181622;55;34309;-65
2021/06/03 09:15:58;;;;;;;2.65;2.28;;;27.80;99.90;;;31.93;38.48;95526.00;2184773;57;27205;-65
2021/06/03 09:18:47;;;;;;;4.35;2.40;;;29.20;99.90;;;32.99;39.77;95528.00;2401935;56;26881;-65
2021/06/03 09:21:39;;;;;;;3.37;2.22;;;27.80;99.90;;;31.01;43.81;95534.00;2191415;56;26729;-64
2021/06/03 09:24:31;;;;;;;3.85;2.65;;;28.50;99.90;;;32.31;40.76;95531.00;2237735;55;27570;-65
2021/06/03 09:27:27;;;;;;;2.72;2.30;;;28.50;99.90;;;31.65;40.82;95530.00;2390368;55;25667;-65
2021/06/03 09:30:17;;;;;;;4.05;2.60;;;28.30;99.90;;;31.92;45.04;95530.00;2265655;55;27311;-65
2021/06/03 09:33:04;;;;;;;3.15;2.70;;;28.10;99.90;;;32.08;41.02;95527.00;2210465;56;27170;-65
2021/06/03 09:35:57;;;;;;;3.47;2.30;;;27.40;99.90;;;30.62;45.80;95525.00;2432513;55;26250;-67
2021/06/03 09:39:24;;;;;;;2.92;2.50;;;27.50;99.90;;;30.62;48.03;95528.00;2209372;56;26748;-64
2021/06/03 09:42:15;;;;;;;3.42;2.35;;;27.00;99.90;;;30.23;43.98;95529.00;2190506;56;25724;-65
2021/06/03 09:45:01;;;;;;;3.53;2.50;;;29.70;98.30;;;33.72;35.99;95524.00;2401346;56;25729;-65
2021/06/03 09:47:48;;;;;;;4.65;2.50;;;29.70;99.90;;;32.99;40.95;95525.00;2190514;56;27022;-65
2021/06/03 09:50:34;;;;;;;2.72;2.50;;;29.00;98.90;;;32.46;38.70;95528.00;2375554;55;25717;-65
2021/06/03 09:56:57;;;;;;;3.22;2.60;;;27.80;98.80;;;32.06;39.31;95523.00;2281648;55;32983;-66
2021/06/03 09:59:46;;;;;;;2.95;2.70;;;28.20;99.50;;;31.14;41.68;95522.00;2163661;56;25766;-66
2021/06/03 10:02:34;;;;;;;2.78;2.53;;;29.80;97.60;;;33.43;36.35;95524.00;2375364;56;26468;-66
2021/06/03 10:05:22;;;;;;;2.78;2.30;;;30.80;96.90;;;34.02;34.96;95521.00;2375474;56;26664;-65
2021/06/03 10:08:08;;;;;;;3.50;2.53;;;31.30;95.90;;;34.73;33.77;95517.00;2375370;56;25221;-66
2021/06/03 10:10:55;;;;;;;2.90;2.60;;;30.10;95.10;;;32.70;35.00;95517.00;2242451;56;26844;-65
2021/06/03 10:14:09;;;;;;;2.50;2.28;;;30.50;95.40;;;32.56;35.95;95522.00;2181906;56;26223;-65
2021/06/03 10:19:56;;;;;;;3.70;2.50;;;29.40;95.60;;;31.15;39.13;95510.00;2251252;53;33549;-64
2021/06/03 10:22:44;;;;;;;4.05;2.50;;;30.70;95.40;;;33.90;34.97;95512.00;2223940;55;26839;-65
2021/06/03 10:28:28;;;;;;;3.72;2.47;;;31.20;94.30;;;33.36;35.65;95515.00;2213961;55;33170;-67
2021/06/03 10:31:14;;;;;;;3.42;2.25;;;31.00;96.80;;;33.35;38.87;95514.00;2213343;57;27206;-67
2021/06/03 10:34:01;;;;;;;3.12;2.78;;;29.30;98.00;;;31.58;42.25;95507.00;2197718;57;25948;-68
2021/06/03 10:36:50;;;;;;;2.70;2.50;;;29.20;97.50;;;31.52;41.09;95508.00;2162812;57;26323;-67
2021/06/03 10:39:38;;;;;;;2.75;2.55;;;28.40;99.90;;;30.19;48.77;95503.00;2376549;56;25738;-67
2021/06/03 10:42:25;;;;;;;4.20;2.60;;;28.10;99.20;;;30.44;46.97;95508.00;2389395;56;25720;-65
2021/06/03 10:45:15;;;;;;;2.87;2.55;;;28.90;99.30;;;32.04;44.10;95498.00;2383111;56;25711;-66
2021/06/03 10:48:02;;;;;;;4.75;2.45;;;29.00;98.60;;;32.53;42.12;95500.00;2397277;56;25632;-66
2021/06/03 10:50:51;;;;;;;5.22;2.60;;;29.90;98.50;;;32.69;42.28;95497.00;2185292;57;27799;-66
2021/06/03 10:56:55;;;;;;;2.97;2.60;;;31.60;95.40;;;34.65;35.83;95488.00;2398697;54;33422;-65
2021/06/03 10:59:43;;;;;;;2.80;2.50;;;30.40;97.50;;;32.62;40.90;95496.00;2459973;55;26159;-65
2021/06/03 11:02:51;;;;;;;2.85;2.40;;;28.60;99.90;;;30.98;49.82;95489.00;2468019;55;27198;-65
2021/06/03 11:05:41;;;;;;;3.53;2.90;;;28.40;99.90;;;30.85;51.69;95489.00;2236339;55;25801;-66
2021/06/03 11:08:33;;;;;;;2.90;2.60;;;30.80;94.30;;;34.92;33.11;95484.00;2457886;55;25767;-65
2021/06/03 11:11:31;;;;;;;4.47;2.50;;;33.30;92.50;;;35.93;32.13;95488.00;2227545;55;25642;-66
2021/06/03 11:14:19;;;;;;;2.50;2.20;;;31.00;95.90;;;32.17;41.57;95489.00;2359534;55;26887;-65
2021/06/03 11:17:05;;;;;;;2.85;2.65;;;29.30;95.00;;;31.69;39.26;95480.00;2457443;55;26330;-65
2021/06/03 11:20:09;;;;;;;2.40;2.20;;;29.80;95.70;;;32.07;39.72;95476.00;2459590;55;26814;-66
2021/06/03 11:25:53;;;;;;;2.62;2.42;;;29.20;95.50;;;31.85;36.98;95478.00;2316395;55;32850;-66
2021/06/03 11:28:40;;;;;;;3.00;2.70;;;30.20;96.90;;;32.18;42.98;95478.00;2164396;57;25627;-65
2021/06/03 11:31:26;;;;;;;2.95;2.65;;;32.00;93.00;;;37.06;30.40;95470.00;2400817;56;25740;-65
2021/06/03 11:37:13;;;;;;;5.22;2.40;;;30.20;95.20;;;32.23;39.51;95474.00;2295227;56;33322;-65
2021/06/03 11:40:11;;;;;;;3.00;2.30;;;29.30;95.20;;;31.12;40.09;95478.00;2148669;57;26789;-65
2021/06/03 11:43:10;;;;;;;5.15;2.50;;;34.70;88.30;;;37.48;27.27;95474.00;2181384;57;25596;-65
2021/06/03 11:45:58;;;;;;;2.80;2.60;;;31.20;93.70;;;32.36;39.07;95471.00;2158796;57;25737;-65
2021/06/03 11:48:44;;;;;;;2.70;2.50;;;29.80;92.90;;;31.76;37.56;95470.00;2144121;57;25609;-66
2021/06/03 11:51:31;;;;;;;3.58;2.80;;;33.50;88.30;;;36.27;28.04;95470.00;2146412;57;25750;-66
2021/06/03 11:54:17;;;;;;;3.45;2.53;;;31.10;90.60;;;33.65;32.00;95465.00;2190772;57;25272;-65
2021/06/03 12:00:15;;;;;;;5.87;2.78;;;31.50;92.80;;;32.99;37.64;95456.00;2237622;56;34274;-65
2021/06/03 12:06:00;;;;;;;3.90;2.45;;;30.90;89.30;;;33.43;33.24;95446.00;2515523;52;33048;-65
2021/06/03 12:08:53;;;;;;;3.40;2.42;;;32.50;87.40;;;35.52;29.07;95449.00;2456993;53;26208;-65
2021/06/03 12:11:46;;;;;;;3.65;2.50;;;31.60;88.00;;;33.97;30.53;95447.00;2530836;53;26365;-65
2021/06/03 12:17:38;;;;;;;3.33;2.40;;;34.30;80.00;;;34.61;27.96;95441.00;2278438;53;32727;-65
2021/06/03 12:20:26;;;;;;;5.72;2.20;;;33.80;79.70;;;34.12;28.44;95433.00;2332940;55;26640;-65
2021/06/03 12:23:13;;;;;;;2.80;2.10;;;33.10;79.50;;;32.97;29.41;95440.00;2261052;55;26666;-66
2021/06/03 12:26:00;;;;;;;3.67;2.60;;;29.80;92.40;;;30.24;41.55;95437.00;2162207;56;26699;-67
2021/06/03 12:28:47;;;;;;;4.00;2.50;;;27.70;93.90;;;28.39;46.17;95441.00;2161914;56;25580;-67
2021/06/03 12:31:34;;;;;;;3.10;2.60;;;26.10;96.30;;;26.55;58.55;95444.00;2163373;56;26686;-64
2021/06/03 12:34:23;;;;;;;3.33;2.50;;;25.60;96.00;;;26.52;57.30;95436.00;2376114;56;26729;-64
2021/06/03 12:37:26;;;;;;;4.72;2.80;;;25.50;95.80;;;26.16;58.17;95434.00;2162436;56;27406;-64
2021/06/03 12:43:18;;;;;;;3.62;2.47;;;25.90;98.20;;;28.63;50.59;95436.00;2465061;53;34418;-67
2021/06/03 12:46:05;;;;;;;6.15;2.70;;;27.30;94.80;;;28.63;49.39;95439.00;2268201;55;26737;-67
2021/06/03 12:49:03;;;;;;;3.97;2.72;;;27.00;93.90;;;28.07;48.87;95439.00;2195668;56;26855;-66
2021/06/03 12:51:56;;;;;;;4.20;2.60;;;26.10;96.00;;;26.91;57.46;95430.00;2341516;55;26772;-66
2021/06/03 12:54:44;;;;;;;3.35;2.47;;;26.40;93.40;;;27.61;47.29;95430.00;2414575;55;26743;-67
2021/06/03 12:57:30;;;;;;;3.55;2.40;;;26.80;94.20;;;28.16;48.12;95427.00;2193886;55;26888;-66
2021/06/03 13:00:28;;;;;;;3.50;2.50;;;26.90;94.50;;;28.06;49.98;95427.00;2193799;55;26897;-66
2021/06/03 13:03:17;;;;;;;4.65;2.33;;;26.90;95.20;;;27.71;51.77;95420.00;2238905;55;26171;-67
2021/06/03 13:06:08;;;;;;;10.07;2.53;;;27.30;96.50;;;28.77;56.45;95413.00;2354391;55;26142;-67
2021/06/03 13:09:00;;;;;;;2.85;2.45;;;27.80;94.00;;;29.11;46.46;95414.00;2376786;55;26717;-66
2021/06/03 13:11:47;;;;;;;4.62;2.90;;;28.10;93.90;;;29.19;46.61;95415.00;2197193;55;26822;-67
2021/06/03 13:17:39;;;;;;;2.70;2.50;;;27.80;96.70;;;29.20;52.38;95406.00;2444147;54;33566;-66
2021/06/03 13:20:29;;;;;;;4.07;2.55;;;27.80;96.10;;;29.06;52.91;95419.00;2216286;55;26731;-67
2021/06/03 13:23:16;;;;;;;2.80;2.50;;;27.50;97.30;;;29.08;57.83;95422.00;2230478;55;27077;-68
2021/06/03 13:26:02;;;;;;;2.97;2.30;;;27.60;96.20;;;29.19;52.27;95416.00;2230089;55;27643;-65
2021/06/03 13:28:49;;;;;;;2.55;2.35;;;26.90;96.20;;;28.15;54.00;95423.00;2326673;54;26910;-64